createdAt,value
2023-01-26T00:00:16.101Z,57.20
2023-01-26T00:01:23.294Z,55.17
2023-01-26T00:02:26.457Z,60.00
2023-01-26T00:03:28.260Z,65.15
2023-01-26T00:04:30.175Z,55.47
2023-01-26T00:05:32.239Z,60.28
2023-01-26T00:06:34.162Z,60.10
2023-01-26T00:07:35.990Z,58.75
2023-01-26T00:08:39.033Z,61.60
2023-01-26T00:09:41.002Z,59.42
2023-01-26T00:10:50.386Z,57.95
2023-01-26T00:11:52.214Z,55.08
2023-01-26T00:12:54.050Z,52.92
2023-01-26T00:14:00.367Z,56.03
2023-01-26T00:15:02.062Z,57.15
2023-01-26T00:16:04.839Z,61.13
2023-01-26T00:17:06.634Z,54.22
2023-01-26T00:18:09.475Z,53.05
2023-01-26T00:19:15.172Z,65.18
2023-01-26T00:20:17.460Z,53.67
2023-01-26T00:21:21.936Z,59.40
2023-01-26T00:22:26.519Z,63.28
2023-01-26T00:23:30.631Z,57.70
2023-01-26T00:24:33.751Z,60.17
2023-01-26T00:25:40.270Z,60.95
2023-01-26T00:26:41.986Z,62.80
2023-01-26T00:27:44.580Z,60.83
2023-01-26T00:28:46.875Z,55.95
2023-01-26T00:29:50.155Z,64.18
2023-01-26T00:30:52.328Z,62.20
2023-01-26T00:31:54.281Z,58.90
2023-01-26T00:32:57.592Z,62.13
2023-01-26T00:34:00.125Z,55.72
2023-01-26T00:35:02.777Z,53.28
2023-01-26T00:36:05.082Z,60.00
2023-01-26T00:37:06.949Z,59.15
2023-01-26T00:38:09.787Z,60.40
2023-01-26T00:39:11.771Z,57.45
2023-01-26T00:40:13.654Z,61.38
2023-01-26T00:41:34.742Z,55.03
2023-01-26T00:42:36.913Z,58.78
2023-01-26T00:43:39.053Z,55.63
2023-01-26T00:44:42.703Z,60.13
2023-01-26T00:45:44.816Z,52.53
2023-01-26T00:46:47.875Z,64.53
2023-01-26T00:47:49.783Z,53.30
2023-01-26T00:48:52.169Z,55.28
2023-01-26T00:49:57.152Z,61.00
2023-01-26T00:50:58.849Z,64.43
2023-01-26T00:52:00.881Z,54.92
2023-01-26T00:53:02.700Z,57.45
2023-01-26T00:54:04.488Z,58.03
2023-01-26T00:55:06.974Z,57.97
2023-01-26T00:56:09.306Z,62.45
2023-01-26T00:57:11.025Z,59.10
2023-01-26T00:58:12.981Z,53.70
2023-01-26T00:59:14.596Z,62.25
2023-01-26T01:00:19.917Z,54.65
2023-01-26T01:01:22.183Z,51.05
2023-01-26T01:02:24.153Z,55.05
2023-01-26T01:03:26.821Z,54.33
2023-01-26T01:04:31.654Z,58.17
2023-01-26T01:05:34.517Z,57.28
2023-01-26T01:06:36.530Z,55.75
2023-01-26T01:07:38.253Z,55.17
2023-01-26T01:08:40.004Z,56.35
2023-01-26T01:09:41.893Z,55.03
2023-01-26T01:10:44.449Z,59.13
2023-01-26T01:11:46.135Z,52.95
2023-01-26T01:12:48.010Z,60.08
2023-01-26T01:13:49.733Z,57.08
2023-01-26T01:14:51.968Z,52.08
2023-01-26T01:15:53.926Z,51.08
2023-01-26T01:16:56.231Z,55.55
2023-01-26T01:17:59.335Z,54.17
2023-01-26T01:19:02.290Z,56.97
2023-01-26T01:20:09.534Z,55.17
2023-01-26T01:21:14.496Z,53.75
2023-01-26T01:22:16.508Z,54.33
2023-01-26T01:23:18.424Z,60.35
2023-01-26T01:24:20.547Z,62.13
2023-01-26T01:25:24.143Z,56.80
2023-01-26T01:26:27.780Z,53.28
2023-01-26T01:27:29.740Z,54.60
2023-01-26T01:28:33.762Z,62.28
2023-01-26T01:29:35.813Z,61.10
2023-01-26T01:30:38.480Z,51.92
2023-01-26T01:31:42.253Z,67.68
2023-01-26T01:32:45.010Z,61.67
2023-01-26T01:33:47.415Z,65.35
2023-01-26T01:34:49.572Z,59.35
2023-01-26T01:36:04.418Z,58.72
2023-01-26T01:37:06.719Z,56.83
2023-01-26T01:38:08.812Z,54.83
2023-01-26T01:39:11.111Z,58.58
2023-01-26T01:40:13.737Z,60.20
2023-01-26T01:41:20.129Z,60.30
2023-01-26T01:42:23.863Z,65.05
2023-01-26T01:43:27.249Z,65.70
2023-01-26T01:44:30.204Z,59.20
2023-01-26T01:45:46.310Z,66.47
2023-01-26T01:46:56.707Z,58.20
2023-01-26T01:48:03.964Z,57.22
2023-01-26T01:49:14.566Z,60.40
2023-01-26T01:50:18.241Z,60.50
2023-01-26T01:52:04.293Z,55.53
2023-01-26T01:53:11.964Z,56.05
2023-01-26T01:54:18.404Z,55.25
2023-01-26T01:55:20.765Z,57.03
2023-01-26T01:56:27.272Z,57.22
2023-01-26T01:57:45.244Z,64.22
2023-01-26T01:58:53.587Z,61.58
2023-01-26T02:00:10.012Z,59.60
2023-01-26T02:01:12.888Z,57.97
2023-01-26T02:02:16.157Z,54.42
2023-01-26T02:03:21.483Z,62.80
2023-01-26T02:04:25.031Z,71.45
2023-01-26T02:05:32.925Z,58.10
2023-01-26T02:06:53.397Z,57.33
2023-01-26T02:07:55.936Z,54.58
2023-01-26T02:08:59.655Z,56.25
2023-01-26T02:10:18.764Z,62.17
2023-01-26T02:11:32.551Z,59.83
2023-01-26T02:12:37.173Z,57.40
2023-01-26T02:13:41.797Z,54.60
2023-01-26T02:14:45.189Z,63.33
2023-01-26T02:15:47.425Z,55.85
2023-01-26T02:16:49.390Z,64.10
2023-01-26T02:17:53.056Z,58.53
2023-01-26T02:18:55.953Z,57.10
2023-01-26T02:20:04.610Z,56.30
2023-01-26T02:21:09.142Z,61.58
2023-01-26T02:22:28.024Z,60.85
2023-01-26T02:23:32.920Z,61.80
2023-01-26T02:24:38.990Z,60.63
2023-01-26T02:25:54.334Z,60.85
2023-01-26T02:26:57.241Z,55.63
2023-01-26T02:27:59.745Z,59.08
2023-01-26T02:29:08.150Z,65.60
2023-01-26T02:30:12.480Z,69.03
2023-01-26T02:31:14.880Z,53.72
2023-01-26T02:32:16.946Z,56.38
2023-01-26T02:33:24.812Z,61.03
2023-01-26T02:34:28.955Z,63.72
2023-01-26T02:35:30.927Z,55.60
2023-01-26T02:36:34.674Z,57.95
2023-01-26T02:37:36.826Z,68.28
2023-01-26T02:38:44.695Z,59.45
2023-01-26T02:39:55.470Z,61.58
2023-01-26T02:41:04.760Z,64.75
2023-01-26T02:42:25.994Z,60.47
2023-01-26T02:43:28.964Z,60.22
2023-01-26T02:44:32.878Z,62.33
2023-01-26T02:45:34.897Z,67.32
2023-01-26T02:46:36.921Z,54.22
2023-01-26T02:47:40.590Z,60.92
2023-01-26T02:49:01.341Z,60.72
2023-01-26T02:50:03.845Z,64.30
2023-01-26T02:51:06.359Z,62.40
2023-01-26T02:52:09.351Z,53.15
2023-01-26T02:53:11.474Z,61.15
2023-01-26T02:54:33.535Z,62.58
2023-01-26T02:55:35.597Z,59.80
2023-01-26T02:56:40.857Z,63.97
2023-01-26T02:57:43.030Z,58.35
2023-01-26T02:58:44.702Z,58.00
2023-01-26T02:59:46.907Z,58.08
2023-01-26T03:00:48.981Z,58.70
2023-01-26T03:01:53.596Z,56.10
2023-01-26T03:02:58.819Z,54.90
2023-01-26T03:04:00.736Z,62.55
2023-01-26T03:05:04.720Z,60.25
2023-01-26T03:06:06.677Z,60.28
2023-01-26T03:07:08.859Z,57.45
2023-01-26T03:08:10.691Z,53.67
2023-01-26T03:09:12.660Z,56.10
2023-01-26T03:10:16.987Z,58.53
2023-01-26T03:11:18.873Z,56.45
2023-01-26T03:12:20.833Z,61.72
2023-01-26T03:13:22.723Z,59.33
2023-01-26T03:14:24.975Z,72.43
2023-01-26T03:15:43.558Z,57.03
2023-01-26T03:16:45.456Z,70.43
2023-01-26T03:17:47.210Z,67.32
2023-01-26T03:19:04.777Z,61.10
2023-01-26T03:20:26.330Z,65.10
2023-01-26T03:21:46.747Z,60.03
2023-01-26T03:23:07.360Z,59.13
2023-01-26T03:24:32.353Z,61.47
2023-01-26T03:25:55.796Z,60.13
2023-01-26T03:27:16.617Z,53.22
2023-01-26T03:28:22.519Z,56.45
2023-01-26T03:29:29.129Z,55.80
2023-01-26T03:30:31.035Z,62.53
2023-01-26T03:31:33.012Z,58.72
2023-01-26T03:32:34.852Z,61.50
2023-01-26T03:33:36.744Z,62.58
2023-01-26T03:34:38.927Z,60.42
2023-01-26T03:35:40.749Z,59.83
2023-01-26T03:36:43.412Z,57.63
2023-01-26T03:37:45.302Z,64.30
2023-01-26T03:38:47.426Z,59.95
2023-01-26T03:40:11.518Z,60.05
2023-01-26T03:41:32.539Z,59.25
2023-01-26T03:42:54.216Z,65.63
2023-01-26T03:44:14.666Z,58.90
2023-01-26T03:45:35.628Z,67.35
2023-01-26T03:46:56.828Z,63.67
2023-01-26T03:48:30.871Z,65.05
2023-01-26T03:49:51.515Z,65.00
2023-01-26T03:51:12.112Z,57.83
2023-01-26T03:52:32.399Z,63.08
2023-01-26T03:53:53.413Z,64.00
2023-01-26T03:55:13.880Z,60.75
2023-01-26T03:56:20.443Z,60.15
2023-01-26T03:57:22.390Z,65.22
2023-01-26T03:58:24.579Z,65.00
2023-01-26T03:59:39.416Z,66.47
2023-01-26T04:00:41.606Z,68.28
2023-01-26T04:02:05.968Z,68.70
2023-01-26T04:03:27.077Z,73.18
2023-01-26T04:04:47.882Z,63.40
2023-01-26T04:06:16.159Z,75.28
2023-01-26T04:07:38.233Z,69.03
2023-01-26T04:08:39.950Z,64.90
2023-01-26T04:09:41.944Z,61.85
2023-01-26T04:10:43.754Z,66.40
2023-01-26T04:11:46.552Z,71.40
2023-01-26T04:13:07.620Z,73.10
2023-01-26T04:14:32.309Z,76.05
2023-01-26T04:15:58.775Z,82.38
2023-01-26T04:17:21.719Z,79.70
2023-01-26T04:18:42.419Z,76.72
2023-01-26T04:20:02.885Z,84.75
2023-01-26T04:21:24.362Z,74.47
2023-01-26T04:22:26.876Z,73.70
2023-01-26T04:23:29.020Z,76.57
2023-01-26T04:24:30.819Z,72.25
2023-01-26T04:25:32.616Z,74.15
2023-01-26T04:26:37.788Z,74.28
2023-01-26T04:27:41.138Z,83.32
2023-01-26T04:28:42.863Z,83.13
2023-01-26T04:29:44.989Z,79.32
2023-01-26T04:30:47.149Z,84.15
2023-01-26T04:31:49.300Z,75.03
2023-01-26T04:32:51.635Z,86.97
2023-01-26T04:33:54.715Z,83.18
2023-01-26T04:34:56.637Z,83.30
2023-01-26T04:36:06.881Z,83.50
2023-01-26T04:37:10.376Z,100.35
2023-01-26T04:38:12.232Z,90.40
2023-01-26T04:39:14.428Z,93.70
2023-01-26T04:40:16.593Z,85.97
2023-01-26T04:41:18.620Z,95.15
2023-01-26T04:42:21.135Z,99.95
2023-01-26T04:43:22.911Z,93.00
2023-01-26T04:44:25.376Z,98.75
2023-01-26T04:45:27.299Z,82.13
2023-01-26T04:46:29.227Z,89.28
2023-01-26T04:47:31.557Z,84.97
2023-01-26T04:48:34.379Z,87.45
2023-01-26T04:49:36.066Z,94.28
2023-01-26T04:50:38.310Z,83.65
2023-01-26T04:51:40.713Z,91.45
2023-01-26T04:52:42.749Z,86.75
2023-01-26T04:53:44.776Z,90.50
2023-01-26T04:54:46.564Z,89.15
2023-01-26T04:55:48.900Z,94.05
2023-01-26T04:56:51.739Z,84.32
2023-01-26T04:57:53.534Z,96.95
2023-01-26T04:58:56.579Z,94.60
2023-01-26T04:59:58.969Z,93.38
2023-01-26T05:01:01.049Z,92.90
2023-01-26T05:02:03.457Z,86.07
2023-01-26T05:03:05.208Z,98.28
2023-01-26T05:04:07.702Z,90.80
2023-01-26T05:05:10.267Z,88.47
2023-01-26T05:06:12.826Z,86.95
2023-01-26T05:07:14.852Z,85.85
2023-01-26T05:08:17.823Z,98.93
2023-01-26T05:09:19.773Z,83.95
2023-01-26T05:10:21.848Z,86.97
2023-01-26T05:11:24.284Z,81.57
2023-01-26T05:12:35.456Z,83.07
2023-01-26T05:13:37.627Z,87.45
2023-01-26T05:14:39.398Z,73.38
2023-01-26T05:15:41.415Z,84.15
2023-01-26T05:16:43.234Z,76.00
2023-01-26T05:17:45.160Z,70.90
2023-01-26T05:18:47.260Z,80.65
2023-01-26T05:19:48.894Z,81.53
2023-01-26T05:20:50.752Z,72.28
2023-01-26T05:21:52.821Z,81.90
2023-01-26T05:22:54.815Z,82.85
2023-01-26T05:23:57.469Z,79.75
2023-01-26T05:24:59.652Z,88.55
2023-01-26T05:26:01.684Z,72.88
2023-01-26T05:27:21.712Z,80.15
2023-01-26T05:28:23.840Z,77.55
2023-01-26T05:29:25.720Z,72.97
2023-01-26T05:30:27.952Z,80.20
2023-01-26T05:31:29.785Z,78.13
2023-01-26T05:32:31.845Z,76.72
2023-01-26T05:33:33.689Z,85.90
2023-01-26T05:34:35.441Z,78.07
2023-01-26T05:35:37.328Z,76.18
2023-01-26T05:36:39.134Z,70.20
2023-01-26T05:37:42.674Z,75.97
2023-01-26T05:38:44.799Z,79.90
2023-01-26T05:39:46.927Z,84.93
2023-01-26T05:40:49.200Z,82.32
2023-01-26T05:41:51.237Z,80.63
2023-01-26T05:42:54.085Z,72.72
2023-01-26T05:43:56.378Z,81.28
2023-01-26T05:44:58.127Z,76.45
2023-01-26T05:46:00.169Z,74.07
2023-01-26T05:47:02.139Z,75.93
2023-01-26T05:48:04.273Z,78.65
2023-01-26T05:49:06.147Z,78.10
2023-01-26T05:50:08.394Z,74.43
2023-01-26T05:51:10.164Z,76.22
2023-01-26T05:52:15.459Z,77.30
2023-01-26T05:53:17.289Z,77.28
2023-01-26T05:54:19.405Z,73.32
2023-01-26T05:55:21.296Z,76.90
2023-01-26T05:56:24.833Z,78.60
2023-01-26T05:57:26.762Z,76.13
2023-01-26T05:58:29.972Z,70.97
2023-01-26T05:59:34.893Z,76.00
2023-01-26T06:00:36.855Z,76.93
2023-01-26T06:01:39.909Z,83.40
2023-01-26T06:02:42.409Z,75.03
2023-01-26T06:03:44.484Z,78.05
2023-01-26T06:04:46.649Z,73.45
2023-01-26T06:05:54.372Z,77.53
2023-01-26T06:06:58.069Z,74.00
2023-01-26T06:08:00.693Z,73.63
2023-01-26T06:09:02.578Z,79.25
2023-01-26T06:10:06.103Z,78.07
2023-01-26T06:11:08.126Z,74.55
2023-01-26T06:12:17.662Z,71.93
2023-01-26T06:13:19.983Z,74.53
2023-01-26T06:14:21.753Z,84.05
2023-01-26T06:15:23.538Z,71.95
2023-01-26T06:16:25.833Z,76.80
2023-01-26T06:17:27.983Z,77.90
2023-01-26T06:18:29.850Z,85.80
2023-01-26T06:19:31.680Z,75.40
2023-01-26T06:20:33.330Z,76.45
2023-01-26T06:21:35.291Z,80.18
2023-01-26T06:22:36.935Z,74.90
2023-01-26T06:23:38.962Z,75.65
2023-01-26T06:24:40.884Z,80.45
2023-01-26T06:25:43.216Z,75.20
2023-01-26T06:26:46.984Z,68.95
2023-01-26T06:27:52.297Z,64.40
2023-01-26T06:28:54.921Z,71.50
2023-01-26T06:29:57.419Z,70.20
2023-01-26T06:31:01.224Z,76.88
2023-01-26T06:32:03.058Z,59.40
2023-01-26T06:33:07.128Z,68.50
2023-01-26T06:34:09.015Z,65.00
2023-01-26T06:35:11.171Z,70.38
2023-01-26T06:36:14.997Z,70.63
2023-01-26T06:37:16.955Z,69.75
2023-01-26T06:38:20.460Z,68.13
2023-01-26T06:39:22.207Z,69.97
2023-01-26T06:40:24.165Z,63.80
2023-01-26T06:41:26.485Z,68.10
2023-01-26T06:42:28.179Z,70.05
2023-01-26T06:43:31.345Z,74.75
2023-01-26T06:44:33.053Z,75.32
2023-01-26T06:45:34.797Z,71.05
2023-01-26T06:46:36.769Z,88.57
2023-01-26T06:47:38.777Z,65.30
2023-01-26T06:48:41.060Z,69.63
2023-01-26T06:49:43.168Z,71.20
2023-01-26T06:50:45.877Z,70.93
2023-01-26T06:52:03.200Z,69.28
2023-01-26T06:53:25.628Z,68.00
2023-01-26T06:54:27.486Z,72.07
2023-01-26T06:55:38.843Z,66.03
2023-01-26T06:56:40.898Z,66.35
2023-01-26T06:57:43.620Z,66.57
2023-01-26T06:58:45.305Z,71.90
2023-01-26T06:59:46.965Z,68.25
2023-01-26T07:00:49.039Z,70.25
2023-01-26T07:01:51.320Z,71.93
2023-01-26T07:02:53.613Z,67.13
2023-01-26T07:03:56.025Z,74.20
2023-01-26T07:04:58.000Z,68.32
2023-01-26T07:05:59.711Z,65.60
2023-01-26T07:07:01.560Z,60.85
2023-01-26T07:08:04.385Z,68.68
2023-01-26T07:09:06.366Z,65.57
2023-01-26T07:10:09.083Z,71.10
2023-01-26T07:11:12.656Z,64.68
2023-01-26T07:12:14.415Z,60.35
2023-01-26T07:13:16.466Z,69.05
2023-01-26T07:14:18.568Z,68.38
2023-01-26T07:15:20.231Z,69.57
2023-01-26T07:16:22.067Z,71.40
2023-01-26T07:17:23.814Z,66.85
2023-01-26T07:18:25.558Z,67.50
2023-01-26T07:19:27.400Z,64.25
2023-01-26T07:20:30.358Z,68.50
2023-01-26T07:21:32.279Z,69.32
2023-01-26T07:22:34.304Z,64.60
2023-01-26T07:23:36.154Z,65.55
2023-01-26T07:24:37.868Z,78.30
2023-01-26T07:25:43.383Z,75.28
2023-01-26T07:26:45.085Z,76.05
2023-01-26T07:27:46.768Z,81.32
2023-01-26T07:28:48.701Z,68.80
2023-01-26T07:29:51.496Z,69.57
2023-01-26T07:30:57.425Z,77.15
2023-01-26T07:31:59.572Z,72.07
2023-01-26T07:33:01.960Z,72.03
2023-01-26T07:34:03.929Z,68.13
2023-01-26T07:35:09.010Z,70.05
2023-01-26T07:36:11.343Z,64.50
2023-01-26T07:37:13.184Z,75.50
2023-01-26T07:38:14.945Z,61.28
2023-01-26T07:39:16.859Z,69.20
2023-01-26T07:40:18.795Z,69.53
2023-01-26T07:41:20.731Z,69.32
2023-01-26T07:42:22.654Z,64.40
2023-01-26T07:43:24.653Z,68.47
2023-01-26T07:44:26.832Z,67.47
2023-01-26T07:45:28.500Z,62.63
2023-01-26T07:46:30.358Z,67.28
2023-01-26T07:47:32.044Z,68.85
2023-01-26T07:48:34.513Z,71.35
2023-01-26T07:49:36.901Z,67.63
2023-01-26T07:50:38.812Z,64.78
2023-01-26T07:51:41.067Z,58.22
2023-01-26T07:52:43.844Z,70.40
2023-01-26T07:53:49.829Z,67.65
2023-01-26T07:54:51.666Z,68.30
2023-01-26T07:55:53.478Z,76.15
2023-01-26T07:56:57.974Z,67.35
2023-01-26T07:57:59.679Z,65.30
2023-01-26T07:59:03.755Z,58.60
2023-01-26T08:00:06.789Z,67.97
2023-01-26T08:01:14.253Z,68.10
2023-01-26T08:02:16.024Z,62.75
2023-01-26T08:03:17.776Z,65.30
2023-01-26T08:04:19.641Z,64.55
2023-01-26T08:05:21.516Z,59.50
2023-01-26T08:06:23.342Z,60.47
2023-01-26T08:07:25.402Z,65.38
2023-01-26T08:08:28.791Z,64.05
2023-01-26T08:09:30.646Z,68.70
2023-01-26T08:10:32.602Z,76.50
2023-01-26T08:11:35.330Z,64.28
2023-01-26T08:12:40.863Z,65.57
2023-01-26T08:13:42.740Z,64.72
2023-01-26T08:14:47.024Z,61.80
2023-01-26T08:15:49.112Z,61.78
2023-01-26T08:16:50.744Z,66.38
2023-01-26T08:17:54.605Z,69.32
2023-01-26T08:18:56.497Z,77.78
2023-01-26T08:19:58.298Z,65.10
2023-01-26T08:21:00.713Z,62.70
2023-01-26T08:22:04.142Z,65.60
2023-01-26T08:23:09.178Z,61.13
2023-01-26T08:24:14.265Z,63.70
2023-01-26T08:25:16.607Z,61.70
2023-01-26T08:26:19.986Z,58.20
2023-01-26T08:27:23.158Z,53.15
2023-01-26T08:28:25.606Z,54.42
2023-01-26T08:29:27.484Z,56.58
2023-01-26T08:30:29.225Z,55.28
2023-01-26T08:31:31.188Z,49.45
2023-01-26T08:32:32.981Z,44.08
2023-01-26T08:33:35.433Z,40.78
2023-01-26T08:34:37.083Z,42.65
2023-01-26T08:35:39.624Z,39.75
2023-01-26T08:36:41.401Z,41.97
2023-01-26T08:37:43.537Z,41.65
2023-01-26T08:38:45.423Z,37.83
2023-01-26T08:39:47.109Z,35.47
2023-01-26T08:40:52.064Z,36.13
2023-01-26T08:41:54.663Z,36.17
2023-01-26T08:42:59.322Z,36.60
2023-01-26T08:44:01.494Z,39.15
2023-01-26T08:45:03.457Z,34.70
2023-01-26T08:46:05.634Z,38.22
2023-01-26T08:47:07.615Z,45.92
2023-01-26T08:48:09.371Z,39.00
2023-01-26T08:49:11.200Z,40.22
2023-01-26T08:50:13.205Z,42.90
2023-01-26T08:51:15.395Z,35.80
2023-01-26T08:52:17.051Z,34.55
2023-01-26T08:53:18.787Z,32.83
2023-01-26T08:54:20.673Z,35.80
2023-01-26T08:55:22.468Z,37.53
2023-01-26T08:56:24.987Z,32.10
2023-01-26T08:57:27.324Z,31.75
2023-01-26T08:58:29.873Z,31.55
2023-01-26T08:59:31.960Z,33.55
2023-01-26T09:00:34.269Z,33.70
2023-01-26T09:01:35.967Z,30.77
2023-01-26T09:02:37.876Z,30.63
2023-01-26T09:03:40.282Z,33.47
2023-01-26T09:04:41.978Z,32.63
2023-01-26T09:05:43.761Z,30.15
2023-01-26T09:06:45.650Z,32.97
2023-01-26T09:07:47.380Z,31.80
2023-01-26T09:08:49.440Z,36.50
2023-01-26T09:09:51.259Z,33.67
2023-01-26T09:10:52.986Z,30.38
2023-01-26T09:11:57.855Z,33.10
2023-01-26T09:13:01.733Z,34.08
2023-01-26T09:14:03.779Z,34.53
2023-01-26T09:15:06.684Z,35.80
2023-01-26T09:16:15.609Z,33.60
2023-01-26T09:17:20.428Z,34.83
2023-01-26T09:18:22.112Z,31.52
2023-01-26T09:19:24.150Z,30.63
2023-01-26T09:20:26.481Z,30.92
2023-01-26T09:21:28.365Z,32.65
2023-01-26T09:22:30.746Z,31.58
2023-01-26T09:23:34.427Z,34.55
2023-01-26T09:24:36.225Z,31.60
2023-01-26T09:25:38.777Z,36.85
2023-01-26T09:26:40.519Z,38.38
2023-01-26T09:27:43.999Z,33.25
2023-01-26T09:28:50.355Z,41.28
2023-01-26T09:29:52.765Z,34.55
2023-01-26T09:30:54.767Z,32.17
2023-01-26T09:31:57.564Z,37.90
2023-01-26T09:33:00.753Z,35.03
2023-01-26T09:34:02.842Z,39.65
2023-01-26T09:35:05.210Z,37.92
2023-01-26T09:36:11.307Z,35.38
2023-01-26T09:37:13.272Z,34.08
2023-01-26T09:38:15.122Z,30.48
2023-01-26T09:39:17.149Z,34.15
2023-01-26T09:40:42.081Z,32.47
2023-01-26T09:41:55.604Z,32.60
2023-01-26T09:43:29.401Z,30.90
2023-01-26T09:44:40.633Z,36.22
2023-01-26T09:45:59.103Z,41.15
2023-01-26T09:47:24.569Z,43.05
2023-01-26T09:48:51.825Z,46.42
2023-01-26T09:50:08.790Z,48.45
2023-01-26T09:51:38.481Z,43.65
2023-01-26T09:52:48.242Z,42.95
2023-01-26T09:54:02.179Z,44.60
2023-01-26T09:55:15.525Z,46.95
2023-01-26T09:56:20.227Z,41.30
2023-01-26T09:57:44.552Z,44.50
2023-01-26T09:58:52.686Z,45.47
2023-01-26T10:00:10.072Z,42.28
2023-01-26T10:01:36.377Z,42.33
2023-01-26T10:03:15.674Z,36.10
2023-01-26T10:04:36.886Z,37.40
2023-01-26T10:05:51.550Z,41.13
2023-01-26T10:06:56.729Z,38.33
2023-01-26T10:07:58.522Z,43.13
2023-01-26T10:09:17.078Z,39.05
2023-01-26T10:10:32.531Z,36.97
2023-01-26T10:11:48.593Z,40.88
2023-01-26T10:12:54.144Z,40.38
2023-01-26T10:14:05.309Z,39.30
2023-01-26T10:15:27.697Z,41.25
2023-01-26T10:16:29.994Z,41.63
2023-01-26T10:17:44.294Z,36.67
2023-01-26T10:18:57.647Z,36.00
2023-01-26T10:20:17.941Z,39.78
2023-01-26T10:21:23.790Z,34.90
2023-01-26T10:22:44.297Z,38.83
2023-01-26T10:23:49.489Z,41.95
2023-01-26T10:24:52.703Z,37.80
2023-01-26T10:26:00.100Z,35.67
2023-01-26T10:27:11.115Z,30.73
2023-01-26T10:28:24.764Z,40.88
2023-01-26T10:29:26.787Z,37.88
2023-01-26T10:30:28.809Z,43.08
2023-01-26T10:31:33.160Z,38.78
2023-01-26T10:32:42.640Z,37.70
2023-01-26T10:34:14.728Z,32.10
2023-01-26T10:35:21.468Z,35.13
2023-01-26T10:36:23.783Z,35.10
2023-01-26T10:37:29.991Z,33.05
2023-01-26T10:38:34.624Z,34.50
2023-01-26T10:39:37.949Z,36.55
2023-01-26T10:40:45.594Z,33.13
2023-01-26T10:42:02.262Z,36.58
2023-01-26T10:43:04.148Z,33.38
2023-01-26T10:44:32.971Z,35.53
2023-01-26T10:45:47.022Z,35.33
2023-01-26T10:47:03.780Z,34.15
2023-01-26T10:48:17.968Z,34.35
2023-01-26T10:49:20.224Z,34.17
2023-01-26T10:50:25.323Z,32.67
2023-01-26T10:51:31.350Z,32.65
2023-01-26T10:52:33.134Z,27.05
2023-01-26T10:53:34.902Z,33.33
2023-01-26T10:54:38.208Z,33.60
2023-01-26T10:55:41.092Z,35.15
2023-01-26T10:56:57.553Z,31.10
2023-01-26T10:58:00.292Z,30.98
2023-01-26T10:59:03.189Z,31.20
2023-01-26T11:00:20.145Z,26.67
2023-01-26T11:01:27.352Z,26.63
2023-01-26T11:02:31.642Z,28.90
2023-01-26T11:03:33.585Z,25.90
2023-01-26T11:04:35.413Z,30.63
2023-01-26T11:05:37.303Z,30.33
2023-01-26T11:06:41.384Z,28.58
2023-01-26T11:07:46.331Z,29.67
2023-01-26T11:08:48.125Z,32.33
2023-01-26T11:09:53.405Z,27.52
2023-01-26T11:10:57.412Z,21.63
2023-01-26T11:12:01.955Z,28.85
2023-01-26T11:13:08.794Z,30.13
2023-01-26T11:14:18.754Z,29.23
2023-01-26T11:15:23.707Z,30.67
2023-01-26T11:16:27.756Z,29.60
2023-01-26T11:17:43.237Z,27.75
2023-01-26T11:19:12.982Z,33.15
2023-01-26T11:20:56.855Z,27.98
2023-01-26T11:22:13.329Z,22.45
2023-01-26T11:23:36.837Z,24.40
2023-01-26T11:24:52.607Z,27.67
2023-01-26T11:26:23.646Z,33.95
2023-01-26T11:27:34.821Z,24.50
2023-01-26T11:28:45.751Z,24.83
2023-01-26T11:30:20.512Z,25.83
2023-01-26T11:31:22.746Z,30.60
2023-01-26T11:32:30.532Z,26.20
2023-01-26T11:33:46.252Z,27.83
2023-01-26T11:34:53.905Z,26.58
2023-01-26T11:36:21.639Z,26.58
2023-01-26T11:37:57.821Z,23.48
2023-01-26T11:39:17.050Z,24.05
2023-01-26T11:40:32.225Z,22.80
2023-01-26T11:42:03.021Z,25.02
2023-01-26T11:43:23.137Z,25.13
2023-01-26T11:44:30.751Z,24.60
2023-01-26T11:45:47.809Z,23.33
2023-01-26T11:47:13.877Z,22.73
2023-01-26T11:48:24.463Z,20.60
2023-01-26T11:49:57.156Z,22.58
2023-01-26T11:51:14.689Z,17.60
2023-01-26T11:52:42.859Z,24.55
2023-01-26T11:54:03.665Z,23.83
2023-01-26T11:55:15.662Z,21.75
2023-01-26T11:56:55.137Z,21.38
2023-01-26T11:58:27.874Z,24.35
2023-01-26T11:59:48.625Z,18.58
2023-01-26T12:00:56.636Z,21.08
2023-01-26T12:02:18.790Z,20.33
2023-01-26T12:03:41.642Z,23.05
2023-01-26T12:04:45.784Z,19.65
2023-01-26T12:05:52.652Z,20.10
2023-01-26T12:07:26.160Z,24.08
2023-01-26T12:08:41.880Z,23.55
2023-01-26T12:09:47.157Z,20.58
2023-01-26T12:10:59.170Z,21.13
2023-01-26T12:12:09.026Z,21.45
2023-01-26T12:13:24.480Z,22.95
2023-01-26T12:15:06.038Z,22.88
2023-01-26T12:16:20.722Z,23.98
2023-01-26T12:17:47.332Z,17.15
2023-01-26T12:19:11.234Z,21.55
2023-01-26T12:20:50.286Z,31.55
2023-01-26T12:21:57.455Z,26.13
2023-01-26T12:23:09.572Z,24.38
2023-01-26T12:24:54.286Z,23.95
2023-01-26T12:25:53.146Z,22.05
2023-01-26T12:26:55.229Z,26.50
2023-01-26T12:28:26.585Z,22.63
2023-01-26T12:29:44.916Z,25.50
2023-01-26T12:30:59.492Z,24.75
2023-01-26T12:32:10.205Z,20.95
2023-01-26T12:33:12.215Z,20.30
2023-01-26T12:34:14.425Z,19.63
2023-01-26T12:35:44.496Z,19.83
2023-01-26T12:36:52.063Z,18.60
2023-01-26T12:38:17.290Z,16.95
2023-01-26T12:39:26.675Z,20.55
2023-01-26T12:40:52.276Z,16.38
2023-01-26T12:42:17.453Z,15.93
2023-01-26T12:43:19.136Z,15.55
2023-01-26T12:44:36.005Z,17.52
2023-01-26T12:45:41.743Z,15.35
2023-01-26T12:46:50.420Z,16.00
2023-01-26T12:48:10.207Z,13.88
2023-01-26T12:49:41.144Z,18.85
2023-01-26T12:50:49.188Z,18.45
2023-01-26T12:52:02.549Z,16.40
2023-01-26T12:53:32.518Z,18.55
2023-01-26T12:55:01.342Z,14.85
2023-01-26T12:56:15.259Z,15.82
2023-01-26T12:57:21.877Z,21.13
2023-01-26T12:58:25.328Z,19.17
2023-01-26T12:59:46.670Z,15.23
2023-01-26T13:01:00.164Z,23.23
2023-01-26T13:02:24.330Z,23.02
2023-01-26T13:03:35.546Z,19.48
2023-01-26T13:04:37.800Z,17.05
2023-01-26T13:05:56.176Z,18.00
2023-01-26T13:07:24.684Z,17.52
2023-01-26T13:08:33.112Z,18.50
2023-01-26T13:09:35.023Z,14.30
2023-01-26T13:10:50.143Z,15.55
2023-01-26T13:11:59.922Z,17.42
2023-01-26T13:13:21.663Z,17.38
2023-01-26T13:14:43.719Z,17.52
2023-01-26T13:15:45.505Z,18.38
2023-01-26T13:16:47.223Z,17.88
2023-01-26T13:18:02.530Z,22.25
2023-01-26T13:19:04.919Z,19.05
2023-01-26T13:20:23.692Z,24.25
2023-01-26T13:21:37.847Z,22.58
2023-01-26T13:22:41.811Z,22.52
2023-01-26T13:23:44.212Z,16.95
2023-01-26T13:24:48.759Z,20.85
2023-01-26T13:26:18.145Z,19.95
2023-01-26T13:27:40.797Z,20.52
2023-01-26T13:28:43.762Z,20.13
2023-01-26T13:29:56.209Z,17.15
2023-01-26T13:31:06.860Z,19.75
2023-01-26T13:32:08.968Z,22.08
2023-01-26T13:33:24.702Z,22.05
2023-01-26T13:34:35.137Z,20.60
2023-01-26T13:35:37.637Z,19.98
2023-01-26T13:36:43.605Z,18.17
2023-01-26T13:37:57.826Z,21.25
2023-01-26T13:39:25.431Z,19.83
2023-01-26T13:40:35.794Z,17.88
2023-01-26T13:41:48.446Z,16.55
2023-01-26T13:43:25.836Z,15.68
2023-01-26T13:44:38.613Z,21.48
2023-01-26T13:46:02.635Z,17.55
2023-01-26T13:47:20.941Z,15.43
2023-01-26T13:48:35.085Z,20.15
2023-01-26T13:49:39.295Z,19.25
2023-01-26T13:50:41.512Z,21.95
2023-01-26T13:51:43.773Z,29.70
2023-01-26T13:52:45.484Z,27.88
2023-01-26T13:54:07.860Z,30.33
2023-01-26T13:55:22.226Z,31.60
2023-01-26T13:56:26.879Z,19.38
2023-01-26T13:57:30.556Z,21.83
2023-01-26T13:58:33.267Z,29.65
2023-01-26T13:59:48.669Z,30.00
2023-01-26T14:01:19.988Z,37.97
2023-01-26T14:02:35.128Z,25.92
2023-01-26T14:03:37.862Z,19.40
2023-01-26T14:04:51.900Z,22.20
2023-01-26T14:06:15.118Z,24.17
2023-01-26T14:07:19.191Z,29.30
2023-01-26T14:08:22.791Z,36.33
2023-01-26T14:09:28.733Z,27.73
2023-01-26T14:10:31.129Z,24.08
2023-01-26T14:11:34.348Z,22.88
2023-01-26T14:12:47.210Z,26.23
2023-01-26T14:13:53.843Z,23.58
2023-01-26T14:15:01.063Z,19.77
2023-01-26T14:16:08.392Z,20.92
2023-01-26T14:17:30.831Z,20.30
2023-01-26T14:18:33.079Z,20.88
2023-01-26T14:19:40.636Z,19.77
2023-01-26T14:20:43.168Z,22.15
2023-01-26T14:21:52.428Z,18.05
2023-01-26T14:23:21.553Z,18.05
2023-01-26T14:24:41.569Z,24.40
2023-01-26T14:25:57.479Z,23.10
2023-01-26T14:27:00.224Z,25.55